Elmendorf Air Force Base
PAED : now visible

Aeroporto :











RITROVATECI SU...

 
LOGIN :

Iscrizione | Disclaimer

   EN    FR    IT 

 









Sommario :    VFR   VFR Marginale   IFR   IFR Intensivo   IFR Molto Intensivo
Visibilità : 
Base nubi : 
>= 8 km
>= 3000ft
5 / 8 km
1000 / 3000 ft
1500m / 5 km
500 / 1000 ft
800 / 1500m
200 / 500 ft
< 800m
< 200 ft
Simboli :   Temporali  Nebbia  Neve Forte  Precipitazioni Forti  Vento > 20 kt






- Altitudine del aeroporto : 212 ft
- Codice IATA : EDF


PAED - Elmendorf Air Force Base

ULTIMO METAR :
  • 011756Z 00000KT 10SM BKN110 12/06 A2960 RMK AO2A SLP020 T01160059 10116 20066 55000 $

METARs OBSOLETI :
  • 011656Z 00000KT 10SM BKN120 11/07 A2960 RMK AO2A SLP020 T01110072 $
  • 011556Z 00000KT 10SM BKN150 09/04 A2960 RMK AO2A SLP020 T00860040 $

TAF TAF PAED
Valido dal 01 a 18 ore il 03 a 00 ore UTC


011800Z 0118/0224 VRB06KT 9999 SCT050 BKN100 BKN180 QNH2959INS
BECMG 0122/0123 VRB06KT 9999 SCT030 BKN080 BKN100 QNH2956INS
TEMPO 0123/0205 22010G15KT
BECMG 0208/0209 VRB06KT 9999 FEW040 BKN180 QNH2957INS
BECMG 0221/0222 17010G15KT 9999 BKN050 BKN080 QNH2961INS TX15/0200Z TN07/0214Z
FIR PAZA / America del Nord



MetMap, La meteo Aeronautica in un colpo d'occhio ! - Copyright ORBIFLY Dicembre 2007 - Disclaimer

ORBIFLY MET'MAP TEAM :

Programmazione e sviluppo : Alexandra Zaïnal
Concezione : Baudouin d'Aumeries
Aiuto per la programmazione : Marc-Olivier Méhu
Supporto tecnico e logistico : Manuel Goepfert
Aiuto per la traduzione : Arnaldo La Scala

Contatto : metmap@orbifly.com




FONTI E CREDITI :

   NOAA       Earth
Advisory